x

Ilm2 - 5 Miles Se Of Wrightsville Beach, Nc (41038) Weather Station

1:08pm - Thu 22nd Jun 2017 All times are EDT. -4 hours from GMT.

  • Wind
    9mph, 11mph gusts
  • Sea Temp 79°f
  • 空気 Temp 80°f
  • Sea Pressure 1019.4mb
  • Ilm2 - 5 Miles Se Of Wrightsville Beach, Nc
  • Ilm2 - 5 Miles Se Of Wrightsville Beach, Nc

More Historic Weather Station data

Upgrade to MSW Pro to gain access to the past 30 days of data for over 8000 Wavebouys and Weather Stations around the globe.

Join Pro

Comparision Forecast

View Surf forecast
   
Thu 06/22 1:08pm 9 11 mph 1019.4mb 79f 80f
12:08pm 7 9 mph 1019.7mb 79f 80f
11:08am 4 7 mph 1019.7mb 78f 80f
10:08am 4 7 mph 1019.5mb 79f 79f
9:08am 4 7 mph 1019.4mb 78f 79f
8:08am 2 4 mph 1019.4mb 78f 78f
7:08am 4 7 mph 1019mb 78f 78f
6:08am 4 9 mph 1018.7mb 78f 78f
5:08am 9 13 mph 1018.4mb 78f 78f
4:08am 7 11 mph 1018.5mb 78f 79f
3:08am 9 13 mph 1018.5mb 78f 79f
2:08am 9 16 mph 1018.7mb 78f 79f
1:08am 7 9 mph 1018.9mb 78f 79f
12:08am 9 11 mph 1019.2mb 78f 79f
Wed 06/21 11:08pm 7 11 mph 1019.4mb 78f 79f
10:08pm 9 11 mph 1019.3mb 78f 79f
9:08pm 9 13 mph 1019.2mb 78f 78f
8:08pm 7 11 mph 1019.1mb 78f 78f
7:08pm 9 13 mph 1018.8mb 78f 78f
6:08pm 7 11 mph 1018.5mb 78f 77f
5:08pm 7 9 mph 1018.7mb 78f 77f
4:08pm 7 11 mph 1018.9mb 78f 76f
3:08pm 4 7 mph 1018.9mb 78f 76f
2:08pm 2 7 mph 1019.7mb 78f 76f
1:08pm 4 7 mph 1020.4mb 78f 75f
12:08pm 9 16 mph 1020.7mb 78f 75f
11:08am 13 18 mph 1020.4mb 78f 75f
10:08am 9 13 mph 1020.7mb 78f 76f
9:08am 11 18 mph 1020.6mb 78f 74f
8:08am 13 20 mph 1019.4mb 78f 74f
7:08am 11 16 mph 1018.9mb 78f 75f
6:08am 9 13 mph 1018.3mb 78f 74f
5:08am 11 16 mph 1018.2mb 78f 75f
4:08am 7 13 mph 1017.9mb 78f 76f
3:08am 4 9 mph 1018.2mb 78f 77f
2:08am 2 4 mph 1018.7mb 78f 77f
1:08am 2 4 mph 1019mb 78f 77f
12:08am 2 7 mph 1019.6mb 78f 77f
Tue 06/20 11:08pm 2 4 mph 1019.2mb 78f 77f
10:08pm 2 4 mph 1019.4mb 78f 77f
9:08pm 2 4 mph 1018.8mb 78f 78f
8:08pm 2 4 mph 1019.6mb 78f 78f
7:08pm 4 7 mph 1019.4mb 78f 78f
6:08pm 4 9 mph 1018.8mb 78f 78f
5:08pm 7 11 mph 1018.1mb 78f 78f
4:08pm 9 13 mph 1018mb 78f 80f
3:08pm 2 7 mph 1018.1mb 78f 80f
2:08pm 9 13 mph 1019.9mb 78f 78f
1:08pm 16 27 mph 1018.9mb 78f 75f
12:08pm 11 18 mph 1018.6mb 78f 74f
11:08am 11 18 mph 1018.7mb 78f 79f
10:08am 9 13 mph 1018.9mb 78f 78f
9:08am 11 16 mph 1019.1mb 78f 78f
8:08am 11 18 mph 1018mb 78f 79f
7:08am 11 20 mph 1017.7mb 77f 79f
6:08am 9 16 mph 1017.4mb 78f 79f
5:08am 11 16 mph 1017.5mb 77f 79f
4:08am 11 18 mph 1017.2mb 77f 79f
3:08am 13 20 mph 1017.3mb 77f 79f
2:08am 11 16 mph 1017.4mb 77f 79f
1:08am 11 16 mph 1018mb 77f 79f
12:08am 11 18 mph 1018mb 77f 79f
Mon 06/19 11:08pm 11 20 mph 1017.9mb 78f 79f
10:08pm 13 22 mph 1017.4mb 78f 79f
9:08pm 13 22 mph 1017.3mb 78f 79f
8:08pm 13 27 mph 1016.6mb 78f 79f
7:08pm 13 25 mph 1016.1mb 78f 80f
6:08pm 13 22 mph 1016.1mb 78f 80f
5:08pm 13 22 mph 1016.3mb 78f 80f
4:08pm 13 22 mph 1015.9mb 78f 80f
3:08pm 11 20 mph 1016.6mb 78f 80f
2:08pm 13 20 mph 1016.9mb 78f 80f
1:08pm 16 22 mph 1016.7mb 78f 80f
12:08pm 11 18 mph 1017mb 78f 80f
11:08am 9 16 mph 1017.3mb 78f 80f
10:08am 7 13 mph 1017.1mb 78f 79f
9:08am 11 18 mph 1016.6mb 77f 79f
8:08am 9 16 mph 1016.7mb 77f 78f
7:08am 9 16 mph 1016.6mb 77f 79f
6:08am 11 20 mph 1016mb 77f 79f
5:08am 9 16 mph 1015.7mb 78f 79f
3:08am 9 16 mph 1015.6mb 78f 79f
2:08am 11 18 mph 1015.8mb 78f 79f
1:08am 11 18 mph 1016.2mb 78f 79f
12:08am 11 18 mph 1016.5mb 78f 79f
Sun 06/18 11:08pm 11 18 mph 1016.7mb 78f 80f
10:08pm 9 16 mph 1016.7mb 79f 80f
9:08pm 11 18 mph 1015.8mb 79f 79f
8:08pm 11 20 mph 1015.3mb 79f 80f
7:08pm 13 27 mph 1014.9mb 79f 80f